Terminal Aerodrome Forecast
Issued by NWS

Home | Current Version | Previous Version | Text Only | Print | Product List | Glossary On
Versions: 1 2 3 4 5 6 7 8 9 10 11 12 13 14 15 16 17 18 19 20 21
000
FTUS43 KEAX 181100
TAFMKC
TAF
KMKC 181134Z 1812/1912 08005KT 2SM -SN OVC025
      TEMPO 1812/1813 1SM -SN BR OVC005
     FM181500 06003KT 2SM BR OVC010
     FM182100 06003KT 5SM BR OVC015
     FM190400 02003KT 2SM BR OVC006=

USA.gov is the U.S. government's official web portal to all federal, state and local government web resources and services.